createdAt,value
2023-10-11T00:00:31.286Z,101027.72
2023-10-11T00:03:06.466Z,101040.22
2023-10-11T00:05:38.525Z,101040.41
2023-10-11T00:08:05.581Z,101033.75
2023-10-11T00:10:32.550Z,101038.38
2023-10-11T00:12:59.996Z,101042.03
2023-10-11T00:15:32.275Z,101042.44
2023-10-11T00:17:59.230Z,101043.63
2023-10-11T00:20:41.066Z,101056.72
2023-10-11T00:23:07.868Z,101046.84
2023-10-11T00:25:34.518Z,101039.19
2023-10-11T00:28:01.172Z,101050.50
2023-10-11T00:30:31.295Z,101035.97
2023-10-11T00:32:58.168Z,101048.47
2023-10-11T00:35:27.699Z,101043.63
2023-10-11T00:37:55.738Z,101037.97
2023-10-11T00:40:33.143Z,101045.03
2023-10-11T00:43:00.360Z,101042.81
2023-10-11T00:45:31.987Z,101047.00
2023-10-11T00:48:00.785Z,101036.53
2023-10-11T00:50:31.706Z,101035.94
2023-10-11T00:53:01.379Z,101030.09
2023-10-11T00:55:30.418Z,101029.66
2023-10-11T00:57:57.689Z,101023.81
2023-10-11T01:00:25.046Z,101027.63
2023-10-11T01:02:53.746Z,101021.81
2023-10-11T01:05:20.871Z,101028.03
2023-10-11T01:07:51.012Z,101023.78
2023-10-11T01:10:19.628Z,101024.00
2023-10-11T01:12:47.399Z,101023.19
2023-10-11T01:15:14.143Z,101016.53
2023-10-11T01:17:41.384Z,101013.13
2023-10-11T01:20:17.826Z,101014.31
2023-10-11T01:22:45.677Z,101018.53
2023-10-11T01:25:22.799Z,101019.34
2023-10-11T01:27:49.603Z,101015.53
2023-10-11T01:30:17.302Z,101019.78
2023-10-11T01:32:44.026Z,101011.72
2023-10-11T01:35:15.161Z,101010.09
2023-10-11T01:37:43.311Z,101011.09
2023-10-11T01:40:11.311Z,101006.84
2023-10-11T01:42:38.374Z,101004.25
2023-10-11T01:45:09.428Z,100999.81
2023-10-11T01:47:36.267Z,101005.88
2023-10-11T01:50:04.167Z,100998.81
2023-10-11T01:52:36.111Z,101001.03
2023-10-11T01:55:06.779Z,100985.13
2023-10-11T01:57:35.502Z,100982.53
2023-10-11T02:00:06.159Z,100979.91
2023-10-11T02:02:36.428Z,100977.47
2023-10-11T02:05:06.384Z,100985.13
2023-10-11T02:07:32.969Z,100975.66
2023-10-11T02:09:59.641Z,100981.88
2023-10-11T02:12:27.412Z,100985.53
2023-10-11T02:14:54.130Z,100979.47
2023-10-11T02:17:25.020Z,100976.03
2023-10-11T02:19:54.620Z,100984.91
2023-10-11T02:22:23.966Z,100980.69
2023-10-11T02:24:53.235Z,100985.09
2023-10-11T02:27:24.095Z,100990.34
2023-10-11T02:29:51.639Z,100986.13
2023-10-11T02:32:18.235Z,100973.03
2023-10-11T02:34:48.275Z,100975.03
2023-10-11T02:37:17.689Z,100969.00
2023-10-11T02:39:44.966Z,100974.03
2023-10-11T02:42:11.677Z,100965.56
2023-10-11T02:44:41.749Z,100965.78
2023-10-11T02:47:10.030Z,100964.97
2023-10-11T02:49:36.665Z,100969.19
2023-10-11T02:52:09.820Z,100964.16
2023-10-11T02:54:39.979Z,100958.31
2023-10-11T02:57:20.599Z,100942.81
2023-10-11T02:59:51.756Z,100955.91
2023-10-11T03:02:19.099Z,100956.06
2023-10-11T03:04:45.873Z,100949.84
2023-10-11T03:07:16.393Z,100951.66
2023-10-11T03:09:44.079Z,100941.59
2023-10-11T03:12:20.866Z,100941.38
2023-10-11T03:14:48.220Z,100942.38
2023-10-11T03:17:16.207Z,100943.59
2023-10-11T03:19:43.990Z,100928.91
2023-10-11T03:22:20.521Z,100918.81
2023-10-11T03:25:12.158Z,100926.44
2023-10-11T03:27:46.832Z,100919.81
2023-10-11T03:30:15.593Z,100925.84
2023-10-11T03:32:45.300Z,100928.69
2023-10-11T03:35:17.396Z,100923.81
2023-10-11T03:37:58.740Z,100926.66
2023-10-11T03:40:36.210Z,100920.22
2023-10-11T03:43:13.290Z,100916.16
2023-10-11T03:45:41.193Z,100909.31
2023-10-11T03:48:13.736Z,100916.94
2023-10-11T03:50:48.859Z,100921.78
2023-10-11T03:53:16.811Z,100922.00
2023-10-11T03:55:47.518Z,100916.31
2023-10-11T03:58:30.953Z,100913.31
2023-10-11T04:01:18.236Z,100911.28
2023-10-11T04:03:45.130Z,100910.47
2023-10-11T04:06:15.728Z,100904.63
2023-10-11T04:09:04.255Z,100899.59
2023-10-11T04:11:56.845Z,100900.78
2023-10-11T04:14:40.892Z,100893.94
2023-10-11T04:17:11.431Z,100890.72
2023-10-11T04:19:41.604Z,100890.91
2023-10-11T04:22:13.975Z,100892.09
2023-10-11T04:24:42.428Z,100886.09
2023-10-11T04:27:21.368Z,100896.94
2023-10-11T04:29:48.905Z,100889.47
2023-10-11T04:32:15.883Z,100904.38
2023-10-11T04:34:56.709Z,100904.53
2023-10-11T04:37:31.713Z,100913.78
2023-10-11T04:40:16.315Z,100914.00
2023-10-11T04:42:43.149Z,100916.97
2023-10-11T04:45:22.693Z,100921.56
2023-10-11T04:47:52.661Z,100911.28
2023-10-11T04:50:19.506Z,100906.28
2023-10-11T04:52:50.603Z,100906.47
2023-10-11T04:55:17.496Z,100912.91
2023-10-11T04:58:05.529Z,100907.28
2023-10-11T05:00:33.834Z,100898.03
2023-10-11T05:03:04.266Z,100897.41
2023-10-11T05:05:32.229Z,100904.44
2023-10-11T05:08:06.716Z,100901.81
2023-10-11T05:10:44.838Z,100904.03
2023-10-11T05:13:15.185Z,100909.25
2023-10-11T05:15:48.208Z,100928.19
2023-10-11T05:18:25.631Z,100922.97
2023-10-11T05:21:05.317Z,100929.41
2023-10-11T05:23:53.734Z,100915.72
2023-10-11T05:26:46.623Z,100920.94
2023-10-11T05:29:26.123Z,100920.50
2023-10-11T05:32:21.935Z,100914.66
2023-10-11T05:35:06.913Z,100909.22
2023-10-11T05:37:52.278Z,100918.25
2023-10-11T05:40:37.858Z,100910.59
2023-10-11T05:43:23.033Z,100910.00
2023-10-11T05:46:08.373Z,100911.78
2023-10-11T05:48:53.369Z,100919.84
2023-10-11T05:51:20.761Z,100920.00
2023-10-11T05:53:50.647Z,100918.41
2023-10-11T05:56:23.351Z,100918.59
2023-10-11T05:58:52.051Z,100924.41
2023-10-11T06:01:23.739Z,100925.22
2023-10-11T06:03:58.107Z,100922.25
2023-10-11T06:06:25.247Z,100932.31
2023-10-11T06:08:52.574Z,100923.28
2023-10-11T06:11:21.018Z,100928.31
2023-10-11T06:13:52.108Z,100922.50
2023-10-11T06:16:20.448Z,100929.78
2023-10-11T06:18:57.444Z,100922.34
2023-10-11T06:21:35.317Z,100914.72
2023-10-11T06:24:05.030Z,100919.22
2023-10-11T06:26:37.655Z,100921.44
2023-10-11T06:29:08.608Z,100918.22
2023-10-11T06:31:45.103Z,100913.22
2023-10-11T06:34:27.333Z,100905.00
2023-10-11T06:36:55.207Z,100907.22
2023-10-11T06:39:42.355Z,100906.44
2023-10-11T06:42:15.432Z,100905.03
2023-10-11T06:44:49.570Z,100905.28
2023-10-11T06:47:17.640Z,100908.72
2023-10-11T06:49:55.115Z,100920.63
2023-10-11T06:52:34.215Z,100921.84
2023-10-11T06:55:15.874Z,100932.50
2023-10-11T06:57:56.176Z,100932.72
2023-10-11T07:00:26.055Z,100937.75
2023-10-11T07:03:23.694Z,100928.91
2023-10-11T07:06:00.261Z,100931.94
2023-10-11T07:08:34.185Z,100928.72
2023-10-11T07:11:04.346Z,100928.91
2023-10-11T07:13:50.847Z,100918.84
2023-10-11T07:16:20.550Z,100921.47
2023-10-11T07:18:48.569Z,100927.94
2023-10-11T07:21:20.899Z,100934.81
2023-10-11T07:23:50.525Z,100947.09
2023-10-11T07:26:24.964Z,100949.50
2023-10-11T07:28:53.553Z,100959.78
2023-10-11T07:31:33.328Z,100974.09
2023-10-11T07:34:01.058Z,100973.72
2023-10-11T07:36:30.018Z,100989.59
2023-10-11T07:38:57.254Z,100985.19
2023-10-11T07:41:29.620Z,100986.59
2023-10-11T07:43:57.532Z,100985.41
2023-10-11T07:46:25.237Z,100966.81
2023-10-11T07:49:02.779Z,100953.72
2023-10-11T07:51:31.422Z,100944.81
2023-10-11T07:53:58.484Z,100933.13
2023-10-11T07:56:25.242Z,100937.56
2023-10-11T07:58:53.243Z,100949.84
2023-10-11T08:01:27.670Z,100947.22
2023-10-11T08:03:55.423Z,100941.19
2023-10-11T08:06:25.990Z,100948.03
2023-10-11T08:09:00.827Z,100951.47
2023-10-11T08:11:46.821Z,100950.88
2023-10-11T08:14:16.691Z,100960.13
2023-10-11T08:16:48.139Z,100966.97
2023-10-11T08:19:15.083Z,100960.69
2023-10-11T08:21:41.947Z,100963.28
2023-10-11T08:24:17.239Z,100963.13
2023-10-11T08:26:45.372Z,100955.59
2023-10-11T08:29:31.751Z,100955.97
2023-10-11T08:32:01.929Z,100950.84
2023-10-11T08:34:29.252Z,100954.66
2023-10-11T08:36:56.750Z,100956.25
2023-10-11T08:39:36.963Z,100942.91
2023-10-11T08:42:12.797Z,100942.66
2023-10-11T08:44:42.458Z,100936.78
2023-10-11T08:47:09.361Z,100938.56
2023-10-11T08:49:36.354Z,100952.91
2023-10-11T08:52:03.924Z,100956.47
2023-10-11T08:54:31.433Z,100953.44
2023-10-11T08:56:59.285Z,100955.03
2023-10-11T08:59:26.920Z,100950.75
2023-10-11T09:01:55.037Z,100939.66
2023-10-11T09:04:28.507Z,100943.09
2023-10-11T09:06:59.083Z,100930.16
2023-10-11T09:09:41.472Z,100942.06
2023-10-11T09:12:27.242Z,100949.59
2023-10-11T09:14:59.727Z,100971.19
2023-10-11T09:17:28.825Z,100974.28
2023-10-11T09:20:01.580Z,100969.25
2023-10-11T09:22:29.404Z,100966.03
2023-10-11T09:25:07.113Z,100972.50
2023-10-11T09:27:50.322Z,100976.94
2023-10-11T09:30:24.793Z,100974.09
2023-10-11T09:32:56.616Z,100991.66
2023-10-11T09:35:28.063Z,100992.75
2023-10-11T09:37:57.060Z,100996.38
2023-10-11T09:40:36.092Z,100997.00
2023-10-11T09:43:03.386Z,100993.56
2023-10-11T09:45:43.243Z,100969.94
2023-10-11T09:48:13.583Z,100971.97
2023-10-11T09:50:42.459Z,100966.53
2023-10-11T09:53:13.400Z,100962.44
2023-10-11T09:55:48.755Z,100966.84
2023-10-11T09:58:36.434Z,100969.44
2023-10-11T10:01:19.226Z,100974.28
2023-10-11T10:03:53.895Z,100990.63
2023-10-11T10:06:23.225Z,100994.28
2023-10-11T10:09:05.547Z,100998.91
2023-10-11T10:12:07.624Z,101000.16
2023-10-11T10:14:39.473Z,101024.59
2023-10-11T10:17:13.225Z,101012.09
2023-10-11T10:19:41.158Z,101025.44
2023-10-11T10:22:32.977Z,101013.13
2023-10-11T10:25:21.130Z,101015.53
2023-10-11T10:27:48.133Z,101016.53
2023-10-11T10:30:23.088Z,101021.38
2023-10-11T10:33:21.686Z,101043.59
2023-10-11T10:35:49.808Z,101037.97
2023-10-11T10:38:16.754Z,101055.31
2023-10-11T10:40:52.346Z,101053.28
2023-10-11T10:43:23.197Z,101066.66
2023-10-11T10:45:51.739Z,101053.91
2023-10-11T10:48:20.752Z,101043.84
2023-10-11T10:51:02.841Z,101030.13
2023-10-11T10:53:56.142Z,101020.63
2023-10-11T10:56:25.951Z,101018.81
2023-10-11T10:59:15.694Z,101013.78
2023-10-11T11:01:45.794Z,101014.78
2023-10-11T11:04:17.195Z,101020.63
2023-10-11T11:06:47.558Z,101026.09
2023-10-11T11:09:28.418Z,101034.97
2023-10-11T11:12:18.646Z,101025.06
2023-10-11T11:14:56.196Z,101028.13
2023-10-11T11:17:24.715Z,101029.94
2023-10-11T11:20:29.005Z,101014.38
2023-10-11T11:22:57.140Z,101020.25
2023-10-11T11:25:28.648Z,101021.66
2023-10-11T11:28:19.347Z,101009.91
2023-10-11T11:30:52.659Z,100997.41
2023-10-11T11:33:49.155Z,100984.06
2023-10-11T11:36:35.214Z,100975.38
2023-10-11T11:39:21.695Z,100992.31
2023-10-11T11:41:48.972Z,100979.56
2023-10-11T11:44:21.361Z,100960.38
2023-10-11T11:46:52.964Z,100945.78
2023-10-11T11:49:22.077Z,100943.34
2023-10-11T11:51:52.390Z,100941.69
2023-10-11T11:54:23.884Z,100933.34
2023-10-11T11:56:55.806Z,100917.91
2023-10-11T11:59:23.722Z,100926.34
2023-10-11T12:01:55.019Z,100920.44
2023-10-11T12:04:22.770Z,100924.19
2023-10-11T12:06:50.040Z,100920.84
2023-10-11T12:09:22.792Z,100929.25
2023-10-11T12:11:54.959Z,100928.59
2023-10-11T12:14:24.912Z,100934.41
2023-10-11T12:16:51.854Z,100937.75
2023-10-11T12:19:18.588Z,100948.66
2023-10-11T12:21:46.318Z,100937.75
2023-10-11T12:24:28.251Z,100948.06
2023-10-11T12:27:01.576Z,100940.75
2023-10-11T12:29:28.646Z,100949.44
2023-10-11T12:31:55.698Z,100940.16
2023-10-11T12:34:26.228Z,100946.81
2023-10-11T12:36:54.626Z,100946.41
2023-10-11T12:39:22.288Z,100951.00
2023-10-11T12:41:50.539Z,100953.16
2023-10-11T12:44:21.517Z,100952.16
2023-10-11T12:46:53.213Z,100952.16
2023-10-11T12:49:20.324Z,100963.28
2023-10-11T12:51:48.663Z,100955.00
2023-10-11T12:54:16.666Z,100953.75
2023-10-11T12:56:43.978Z,100953.75
2023-10-11T12:59:17.376Z,100953.81
2023-10-11T13:01:51.692Z,100948.47
2023-10-11T13:04:36.165Z,100949.84
2023-10-11T13:07:02.839Z,100952.00
2023-10-11T13:09:31.543Z,100947.94
2023-10-11T13:11:59.427Z,100949.44
2023-10-11T13:14:28.463Z,100957.88
2023-10-11T13:16:57.172Z,100955.72
2023-10-11T13:19:27.411Z,100951.25
2023-10-11T13:21:56.062Z,100948.38
2023-10-11T13:24:24.985Z,100947.56
2023-10-11T13:26:58.608Z,100946.56
2023-10-11T13:29:26.997Z,100944.94
2023-10-11T13:31:55.527Z,100943.56
2023-10-11T13:34:29.996Z,100942.41
2023-10-11T13:37:01.975Z,100931.53
2023-10-11T13:39:29.843Z,100931.72
2023-10-11T13:41:58.594Z,100925.31
2023-10-11T13:44:26.573Z,100911.44
2023-10-11T13:46:54.894Z,100906.16
2023-10-11T13:49:27.229Z,100918.97
2023-10-11T13:51:55.805Z,100903.81
2023-10-11T13:54:51.782Z,100905.69
2023-10-11T13:57:20.401Z,100901.88
2023-10-11T13:59:48.751Z,100904.50
2023-10-11T14:02:29.118Z,100899.69
2023-10-11T14:05:08.438Z,100884.78
2023-10-11T14:07:38.213Z,100890.69
2023-10-11T14:10:16.668Z,100887.72
2023-10-11T14:12:46.920Z,100888.72
2023-10-11T14:15:19.062Z,100876.81
2023-10-11T14:17:48.853Z,100878.66
2023-10-11T14:20:24.464Z,100865.88
2023-10-11T14:22:51.788Z,100869.66
2023-10-11T14:25:21.936Z,100867.81
2023-10-11T14:27:48.889Z,100864.97
2023-10-11T14:30:16.426Z,100864.75
2023-10-11T14:32:45.906Z,100856.44
2023-10-11T14:35:18.184Z,100857.44
2023-10-11T14:37:45.300Z,100855.81
2023-10-11T14:40:17.343Z,100862.13
2023-10-11T14:42:45.337Z,100851.38
2023-10-11T14:45:14.126Z,100850.56
2023-10-11T14:47:46.290Z,100846.34
2023-10-11T14:50:16.091Z,100848.41
2023-10-11T14:52:45.166Z,100849.97
2023-10-11T14:55:18.606Z,100849.16
2023-10-11T14:57:51.138Z,100846.34
2023-10-11T15:00:19.059Z,100847.94
2023-10-11T15:02:47.364Z,100853.00
2023-10-11T15:05:17.195Z,100851.38
2023-10-11T15:07:53.168Z,100853.00
2023-10-11T15:10:29.666Z,100847.16
2023-10-11T15:12:57.266Z,100849.16
2023-10-11T15:15:30.593Z,100833.63
2023-10-11T15:18:02.967Z,100833.28
2023-10-11T15:20:32.859Z,100825.59
2023-10-11T15:23:01.927Z,100829.25
2023-10-11T15:25:29.045Z,100826.03
2023-10-11T15:27:57.246Z,100826.03
2023-10-11T15:30:23.962Z,100833.53
2023-10-11T15:32:50.984Z,100833.75
2023-10-11T15:35:20.202Z,100831.34
2023-10-11T15:37:48.036Z,100838.22
2023-10-11T15:40:18.094Z,100845.75
2023-10-11T15:42:47.939Z,100847.78
2023-10-11T15:45:19.302Z,100843.34
2023-10-11T15:47:49.543Z,100843.81
2023-10-11T15:50:20.367Z,100844.00
2023-10-11T15:52:52.948Z,100846.88
2023-10-11T15:55:23.593Z,100842.41
2023-10-11T15:57:53.110Z,100842.41
2023-10-11T16:00:21.583Z,100840.78
2023-10-11T16:02:50.828Z,100850.97
2023-10-11T16:05:17.754Z,100832.56
2023-10-11T16:07:45.571Z,100827.50
2023-10-11T16:10:13.609Z,100821.22
2023-10-11T16:12:44.096Z,100814.81
2023-10-11T16:15:13.693Z,100805.88
2023-10-11T16:17:42.694Z,100808.50
2023-10-11T16:20:11.214Z,100801.66
2023-10-11T16:22:41.804Z,100806.09
2023-10-11T16:25:10.116Z,100808.16
2023-10-11T16:27:42.934Z,100810.22
2023-10-11T16:30:12.912Z,100806.78
2023-10-11T16:32:40.249Z,100815.09
2023-10-11T16:35:09.298Z,100810.25
2023-10-11T16:37:39.329Z,100817.56
2023-10-11T16:40:06.463Z,100821.25
2023-10-11T16:42:36.207Z,100821.66
2023-10-11T16:45:03.119Z,100808.97
2023-10-11T16:47:38.149Z,100808.38
2023-10-11T16:50:05.372Z,100810.66
2023-10-11T16:52:32.014Z,100805.25
2023-10-11T16:55:00.266Z,100802.25
2023-10-11T16:57:26.976Z,100796.84
2023-10-11T16:59:54.667Z,100802.78
2023-10-11T17:02:21.619Z,100799.19
2023-10-11T17:04:50.917Z,100807.72
2023-10-11T17:07:19.296Z,100804.13
2023-10-11T17:09:46.093Z,100811.66
2023-10-11T17:12:12.830Z,100817.31
2023-10-11T17:14:40.348Z,100813.28
2023-10-11T17:17:07.331Z,100818.75
2023-10-11T17:19:37.232Z,100821.16
2023-10-11T17:22:05.915Z,100824.81
2023-10-11T17:24:33.793Z,100823.00
2023-10-11T17:27:03.086Z,100815.13
2023-10-11T17:29:29.924Z,100827.22
2023-10-11T17:31:56.709Z,100818.53
2023-10-11T17:34:24.897Z,100816.72
2023-10-11T17:36:52.801Z,100806.22
2023-10-11T17:39:19.655Z,100808.84
2023-10-11T17:41:46.350Z,100805.41
2023-10-11T17:44:13.439Z,100803.81
2023-10-11T17:46:40.207Z,100810.06
2023-10-11T17:49:07.152Z,100821.81
2023-10-11T17:51:33.984Z,100821.22
2023-10-11T17:54:03.253Z,100825.91
2023-10-11T17:56:30.170Z,100819.84
2023-10-11T17:59:02.729Z,100820.63
2023-10-11T18:01:29.525Z,100818.25
2023-10-11T18:04:06.404Z,100805.31
2023-10-11T18:06:33.527Z,100801.09
2023-10-11T18:09:01.420Z,100795.44
2023-10-11T18:11:28.040Z,100784.59
2023-10-11T18:13:58.762Z,100777.34
2023-10-11T18:16:31.703Z,100789.09
2023-10-11T18:18:59.106Z,100799.81
2023-10-11T18:21:26.422Z,100787.69
2023-10-11T18:23:53.154Z,100793.75
2023-10-11T18:26:20.027Z,100798.44
2023-10-11T18:28:48.796Z,100793.16
2023-10-11T18:31:15.728Z,100783.44
2023-10-11T18:33:42.619Z,100787.09
2023-10-11T18:36:09.567Z,100783.66
2023-10-11T18:38:36.505Z,100790.53
2023-10-11T18:41:08.957Z,100778.41
2023-10-11T18:43:37.514Z,100778.66
2023-10-11T18:46:10.097Z,100789.56
2023-10-11T18:48:38.485Z,100800.88
2023-10-11T18:51:10.938Z,100814.22
2023-10-11T18:53:37.786Z,100827.38
2023-10-11T18:56:05.371Z,100817.06
2023-10-11T18:58:33.186Z,100804.75
2023-10-11T19:01:00.240Z,100803.94
2023-10-11T19:03:30.198Z,100808.97
2023-10-11T19:06:00.297Z,100805.75
2023-10-11T19:08:28.560Z,100796.06
2023-10-11T19:10:55.658Z,100803.94
2023-10-11T19:13:22.787Z,100818.88
2023-10-11T19:15:49.826Z,100812.03
2023-10-11T19:18:18.381Z,100801.72
2023-10-11T19:20:46.596Z,100809.59
2023-10-11T19:23:14.016Z,100794.28
2023-10-11T19:25:44.745Z,100797.72
2023-10-11T19:28:11.497Z,100795.31
2023-10-11T19:30:39.561Z,100787.66
2023-10-11T19:33:07.754Z,100781.81
2023-10-11T19:35:34.605Z,100788.06
2023-10-11T19:38:01.232Z,100788.06
2023-10-11T19:40:28.973Z,100775.75
2023-10-11T19:42:56.725Z,100767.88
2023-10-11T19:45:24.580Z,100771.09
2023-10-11T19:47:51.890Z,100777.38
2023-10-11T19:50:20.081Z,100775.75
2023-10-11T19:52:52.094Z,100781.81
2023-10-11T19:55:23.349Z,100771.31
2023-10-11T19:57:55.105Z,100776.75
2023-10-11T20:00:23.977Z,100767.28
2023-10-11T20:02:52.749Z,100762.25
2023-10-11T20:05:20.521Z,100767.28
2023-10-11T20:07:50.280Z,100735.78
2023-10-11T20:10:17.729Z,100735.22
2023-10-11T20:12:46.585Z,100746.72
2023-10-11T20:15:14.828Z,100756.41
2023-10-11T20:17:46.468Z,100781.88
2023-10-11T20:20:14.278Z,100778.00
2023-10-11T20:22:43.257Z,100779.00
2023-10-11T20:25:12.496Z,100762.47
2023-10-11T20:27:40.763Z,100755.63
2023-10-11T20:30:08.362Z,100760.06
2023-10-11T20:32:36.577Z,100769.75
2023-10-11T20:35:08.398Z,100769.97
2023-10-11T20:37:36.387Z,100773.38
2023-10-11T20:40:06.606Z,100742.91
2023-10-11T20:42:33.477Z,100759.47
2023-10-11T20:45:02.482Z,100758.28
2023-10-11T20:47:30.175Z,100762.94
2023-10-11T20:49:56.940Z,100765.78
2023-10-11T20:52:24.747Z,100763.38
2023-10-11T20:54:51.957Z,100754.91
2023-10-11T20:57:22.363Z,100761.97
2023-10-11T20:59:49.127Z,100767.44
2023-10-11T21:02:16.291Z,100763.00
2023-10-11T21:05:01.582Z,100764.03
2023-10-11T21:07:28.932Z,100767.44
2023-10-11T21:09:55.647Z,100777.34
2023-10-11T21:12:24.755Z,100781.78
2023-10-11T21:14:51.625Z,100799.13
2023-10-11T21:17:18.238Z,100791.25
2023-10-11T21:19:44.970Z,100779.97
2023-10-11T21:22:13.069Z,100769.47
2023-10-11T21:24:41.219Z,100774.72
2023-10-11T21:27:07.923Z,100782.00
2023-10-11T21:29:34.679Z,100761.22
2023-10-11T21:32:01.457Z,100760.19
2023-10-11T21:34:28.226Z,100788.47
2023-10-11T21:36:54.928Z,100787.66
2023-10-11T21:39:21.741Z,100756.16
2023-10-11T21:41:48.377Z,100762.44
2023-10-11T21:44:15.029Z,100773.16
2023-10-11T21:46:41.817Z,100773.94
2023-10-11T21:49:08.568Z,100766.88
2023-10-11T21:51:36.942Z,100766.88
2023-10-11T21:54:03.905Z,100759.25
2023-10-11T21:56:30.535Z,100750.34
2023-10-11T21:58:57.175Z,100758.44
2023-10-11T22:01:24.916Z,100753.41
2023-10-11T22:03:52.729Z,100753.59
2023-10-11T22:06:21.690Z,100749.38
2023-10-11T22:08:49.703Z,100753.00
2023-10-11T22:11:17.787Z,100760.28
2023-10-11T22:13:46.765Z,100770.19
2023-10-11T22:16:16.504Z,100751.84
2023-10-11T22:18:43.326Z,100749.81
2023-10-11T22:21:14.603Z,100745.56
2023-10-11T22:23:45.303Z,100746.59
2023-10-11T22:26:13.019Z,100745.97
2023-10-11T22:28:42.379Z,100746.38
2023-10-11T22:31:13.697Z,100746.16
2023-10-11T22:33:45.051Z,100746.38
2023-10-11T22:36:16.800Z,100735.09
2023-10-11T22:38:43.956Z,100728.25
2023-10-11T22:41:17.123Z,100721.19
2023-10-11T22:43:44.172Z,100708.84
2023-10-11T22:46:13.706Z,100697.78
2023-10-11T22:48:40.750Z,100703.25
2023-10-11T22:51:08.112Z,100705.88
2023-10-11T22:53:40.145Z,100719.97
2023-10-11T22:56:17.768Z,100734.31
2023-10-11T22:58:44.520Z,100732.72
2023-10-11T23:01:17.591Z,100746.66
2023-10-11T23:03:44.930Z,100745.84
2023-10-11T23:06:12.020Z,100751.28
2023-10-11T23:08:38.680Z,100756.75
2023-10-11T23:11:19.823Z,100763.81
2023-10-11T23:13:52.536Z,100764.63
2023-10-11T23:16:22.842Z,100769.84
2023-10-11T23:18:50.344Z,100758.78
2023-10-11T23:21:24.073Z,100751.72
2023-10-11T23:23:56.395Z,100765.25
2023-10-11T23:26:26.303Z,100767.28
2023-10-11T23:28:54.734Z,100767.28
2023-10-11T23:31:30.536Z,100776.97
2023-10-11T23:34:00.298Z,100770.91
2023-10-11T23:36:36.421Z,100771.94
2023-10-11T23:39:10.011Z,100771.34
2023-10-11T23:41:47.400Z,100770.75
2023-10-11T23:44:21.664Z,100785.88
2023-10-11T23:47:00.423Z,100784.69
2023-10-11T23:52:06.710Z,100795.38
2023-10-11T23:54:35.648Z,100785.31
2023-10-11T23:57:08.997Z,100775.03
2023-10-11T23:59:38.356Z,100785.75
